VPCOH UGTB-UTAA
Flight info
| Callsign | VPCOH |
|---|---|
| Flight time | N/A |
| Altitude | 39000 |
| Route | DISKA M737 VERCA M747 SULEL N449 DUKAN B449 MAMED MAM11A |
| Aircraft | B738/M-SDE2E3FGHIRWXY/LB1 |
Departure
| Time | N/A |
|---|---|
| Airport | Tbilisi International Airport (UGTB) |
Arrival
| Time | 2026-05-05 17:14 |
|---|---|
| Airport | Ashgabat International Airport (UTAA) |
| Time | Latitude | Longitude | Altitude | Speed | Heading |
|---|---|---|---|---|---|
| 2026-05-05 15:56 | 40.86112 | 46.96083 | 38870 ft | 473 kts | 116° |
| 2026-05-05 15:57 | 40.83870 | 47.04241 | 38864 ft | 470 kts | 117° |
| 2026-05-05 15:57 | 40.81644 | 47.12312 | 38860 ft | 469 kts | 117° |
| 2026-05-05 15:58 | 40.79395 | 47.20411 | 38866 ft | 468 kts | 117° |
| 2026-05-05 15:58 | 40.77148 | 47.28437 | 38893 ft | 469 kts | 117° |
| 2026-05-05 15:59 | 40.74878 | 47.36535 | 38895 ft | 471 kts | 117° |
| 2026-05-05 15:59 | 40.72597 | 47.44655 | 38908 ft | 473 kts | 117° |
| 2026-05-05 16:00 | 40.70321 | 47.52747 | 38906 ft | 475 kts | 117° |
| 2026-05-05 16:00 | 40.68014 | 47.60929 | 38904 ft | 476 kts | 117° |
| 2026-05-05 16:01 | 40.65697 | 47.69127 | 38906 ft | 476 kts | 117° |
| 2026-05-05 16:01 | 40.63390 | 47.77258 | 38903 ft | 476 kts | 117° |
| 2026-05-05 16:02 | 40.61067 | 47.85425 | 38905 ft | 475 kts | 117° |
| 2026-05-05 16:02 | 40.58743 | 47.93568 | 38913 ft | 474 kts | 117° |
| 2026-05-05 16:03 | 40.56585 | 48.01785 | 38907 ft | 475 kts | 114° |
| 2026-05-05 16:03 | 40.54647 | 48.10013 | 38908 ft | 472 kts | 114° |
| 2026-05-05 16:04 | 40.52634 | 48.18214 | 38914 ft | 469 kts | 115° |
| 2026-05-05 16:04 | 40.50617 | 48.26365 | 38916 ft | 467 kts | 115° |
| 2026-05-05 16:05 | 40.48606 | 48.34491 | 38920 ft | 467 kts | 115° |
| 2026-05-05 16:05 | 40.46605 | 48.42556 | 38925 ft | 467 kts | 115° |
| 2026-05-05 16:06 | 40.44578 | 48.50694 | 38932 ft | 468 kts | 115° |
| 2026-05-05 16:06 | 40.42553 | 48.58795 | 38930 ft | 470 kts | 115° |
| 2026-05-05 16:07 | 40.40500 | 48.66983 | 38939 ft | 472 kts | 115° |
| 2026-05-05 16:07 | 40.38445 | 48.75154 | 38941 ft | 475 kts | 115° |
| 2026-05-05 16:08 | 40.36366 | 48.83391 | 38935 ft | 476 kts | 115° |
| 2026-05-05 16:08 | 40.34274 | 48.91655 | 38932 ft | 476 kts | 116° |
| 2026-05-05 16:09 | 40.32182 | 48.99896 | 38956 ft | 477 kts | 116° |
| 2026-05-05 16:09 | 40.30070 | 49.08154 | 38957 ft | 477 kts | 116° |
| 2026-05-05 16:10 | 40.27944 | 49.16358 | 38962 ft | 478 kts | 116° |
| 2026-05-05 16:10 | 40.25802 | 49.24615 | 38964 ft | 478 kts | 116° |
| 2026-05-05 16:11 | 40.23678 | 49.32829 | 38970 ft | 478 kts | 116° |
| 2026-05-05 16:12 | 40.19404 | 49.49325 | 38974 ft | 479 kts | 115° |
| 2026-05-05 16:12 | 40.18133 | 49.57980 | 38983 ft | 490 kts | 104° |
| 2026-05-05 16:13 | 40.17024 | 49.71277 | 38970 ft | 491 kts | 103° |
| 2026-05-05 16:13 | 40.16248 | 49.80172 | 38974 ft | 491 kts | 104° |
| 2026-05-05 16:14 | 40.14594 | 49.97828 | 38979 ft | 491 kts | 104° |
| 2026-05-05 16:15 | 40.12900 | 50.15518 | 38984 ft | 491 kts | 104° |
| 2026-05-05 16:16 | 40.11176 | 50.33280 | 38972 ft | 493 kts | 104° |
| 2026-05-05 16:17 | 40.09868 | 50.46570 | 38973 ft | 494 kts | 104° |
| 2026-05-05 16:18 | 40.08535 | 50.59944 | 38968 ft | 495 kts | 104° |
| 2026-05-05 16:19 | 40.07184 | 50.73347 | 38969 ft | 497 kts | 104° |
| 2026-05-05 16:19 | 40.05814 | 50.86778 | 38968 ft | 498 kts | 104° |
| 2026-05-05 16:20 | 40.03960 | 51.04712 | 38960 ft | 499 kts | 104° |
| 2026-05-05 16:22 | 40.01598 | 51.27169 | 38956 ft | 500 kts | 104° |
| 2026-05-05 16:23 | 39.99680 | 51.45106 | 38961 ft | 501 kts | 104° |
| 2026-05-05 16:23 | 39.97727 | 51.58433 | 38960 ft | 495 kts | 110° |
| 2026-05-05 16:24 | 39.96016 | 51.67135 | 38956 ft | 495 kts | 111° |
| 2026-05-05 16:25 | 39.93495 | 51.80152 | 38955 ft | 496 kts | 110° |
| 2026-05-05 16:25 | 39.91013 | 51.93275 | 38951 ft | 497 kts | 110° |
| 2026-05-05 16:26 | 39.87690 | 52.10739 | 38947 ft | 498 kts | 110° |
| 2026-05-05 16:27 | 39.86010 | 52.19495 | 38946 ft | 498 kts | 110° |
| 2026-05-05 16:27 | 39.84325 | 52.28246 | 38940 ft | 498 kts | 111° |
| 2026-05-05 16:28 | 39.82629 | 52.37008 | 38940 ft | 499 kts | 111° |
| 2026-05-05 16:28 | 39.80936 | 52.45717 | 38941 ft | 499 kts | 111° |
| 2026-05-05 16:29 | 39.79229 | 52.54460 | 38939 ft | 499 kts | 111° |
| 2026-05-05 16:29 | 39.77512 | 52.63222 | 38936 ft | 500 kts | 111° |
| 2026-05-05 16:30 | 39.75787 | 52.71983 | 38930 ft | 500 kts | 111° |
| 2026-05-05 16:30 | 39.74065 | 52.80699 | 38930 ft | 501 kts | 111° |
| 2026-05-05 16:31 | 39.72623 | 52.88006 | 38929 ft | 502 kts | 111° |
| 2026-05-05 16:31 | 39.70911 | 52.96822 | 38927 ft | 502 kts | 111° |
| 2026-05-05 16:32 | 39.69198 | 53.05639 | 38923 ft | 503 kts | 111° |
| 2026-05-05 16:32 | 39.67483 | 53.14406 | 38920 ft | 504 kts | 111° |
| 2026-05-05 16:33 | 39.65749 | 53.23217 | 38928 ft | 504 kts | 111° |
| 2026-05-05 16:33 | 39.64004 | 53.32047 | 38923 ft | 505 kts | 111° |
| 2026-05-05 16:34 | 39.62261 | 53.40824 | 38926 ft | 505 kts | 111° |
| 2026-05-05 16:34 | 39.60502 | 53.49648 | 38927 ft | 505 kts | 111° |
| 2026-05-05 16:35 | 39.58735 | 53.58476 | 38923 ft | 506 kts | 111° |
| 2026-05-05 16:35 | 39.56960 | 53.67305 | 38920 ft | 506 kts | 111° |
| 2026-05-05 16:36 | 39.55174 | 53.76150 | 38915 ft | 507 kts | 111° |
| 2026-05-05 16:36 | 39.53391 | 53.84946 | 38909 ft | 507 kts | 111° |
| 2026-05-05 16:37 | 39.51591 | 53.93790 | 38902 ft | 507 kts | 111° |
| 2026-05-05 16:37 | 39.49783 | 54.02636 | 38895 ft | 507 kts | 111° |
| 2026-05-05 16:38 | 39.47954 | 54.11453 | 38895 ft | 507 kts | 111° |
| 2026-05-05 16:38 | 39.46107 | 54.20261 | 38885 ft | 507 kts | 111° |
| 2026-05-05 16:39 | 39.44258 | 54.29055 | 38879 ft | 506 kts | 111° |
| 2026-05-05 16:39 | 39.42405 | 54.37848 | 38878 ft | 506 kts | 111° |
| 2026-05-05 16:40 | 39.40557 | 54.46582 | 38874 ft | 506 kts | 111° |
| 2026-05-05 16:40 | 39.38690 | 54.55371 | 38865 ft | 505 kts | 111° |
| 2026-05-05 16:41 | 39.36833 | 54.64080 | 38864 ft | 505 kts | 111° |
| 2026-05-05 16:41 | 39.34955 | 54.72851 | 38858 ft | 505 kts | 111° |
| 2026-05-05 16:42 | 39.33082 | 54.81559 | 38855 ft | 505 kts | 111° |
| 2026-05-05 16:42 | 39.31197 | 54.90293 | 38857 ft | 505 kts | 111° |
| 2026-05-05 16:43 | 39.29295 | 54.99063 | 38847 ft | 507 kts | 111° |
| 2026-05-05 16:43 | 39.27386 | 55.07840 | 38852 ft | 507 kts | 111° |
| 2026-05-05 16:44 | 39.25480 | 55.16563 | 38855 ft | 508 kts | 111° |
| 2026-05-05 16:44 | 39.23557 | 55.25334 | 38856 ft | 508 kts | 111° |
| 2026-05-05 16:45 | 39.21625 | 55.34106 | 38860 ft | 509 kts | 111° |
| 2026-05-05 16:45 | 39.19684 | 55.42887 | 38852 ft | 509 kts | 111° |
| 2026-05-05 16:46 | 39.17736 | 55.51676 | 38845 ft | 510 kts | 110° |
| 2026-05-05 16:46 | 39.15790 | 55.60401 | 38838 ft | 509 kts | 110° |
| 2026-05-05 16:47 | 39.13826 | 55.69157 | 38831 ft | 508 kts | 111° |
| 2026-05-05 16:47 | 39.11854 | 55.77912 | 38835 ft | 507 kts | 111° |
| 2026-05-05 16:48 | 39.09882 | 55.86641 | 38826 ft | 506 kts | 111° |
| 2026-05-05 16:48 | 39.07921 | 55.95290 | 38821 ft | 505 kts | 111° |
| 2026-05-05 16:49 | 39.05944 | 56.03977 | 38817 ft | 504 kts | 110° |
| 2026-05-05 16:49 | 39.03977 | 56.12587 | 38816 ft | 503 kts | 110° |
| 2026-05-05 16:50 | 39.02985 | 56.16913 | 38423 ft | 508 kts | 110° |
| 2026-05-05 16:50 | 39.01983 | 56.21278 | 37750 ft | 506 kts | 110° |
| 2026-05-05 16:50 | 39.00986 | 56.25625 | 37127 ft | 503 kts | 111° |
| 2026-05-05 16:50 | 38.99990 | 56.29951 | 36479 ft | 501 kts | 111° |
| 2026-05-05 16:51 | 38.98956 | 56.34139 | 36134 ft | 490 kts | 113° |
| 2026-05-05 16:51 | 38.97835 | 56.38293 | 35386 ft | 491 kts | 114° |
| 2026-05-05 16:51 | 38.96671 | 56.42429 | 34666 ft | 491 kts | 115° |
| 2026-05-05 16:51 | 38.95496 | 56.46559 | 33888 ft | 492 kts | 115° |
| 2026-05-05 16:52 | 38.94332 | 56.50664 | 32884 ft | 497 kts | 115° |
| 2026-05-05 16:52 | 38.93158 | 56.54848 | 32004 ft | 497 kts | 114° |
| 2026-05-05 16:52 | 38.91998 | 56.59018 | 31113 ft | 498 kts | 114° |
| 2026-05-05 16:52 | 38.90831 | 56.63232 | 30199 ft | 499 kts | 114° |
| 2026-05-05 16:53 | 38.89671 | 56.67430 | 29351 ft | 497 kts | 114° |
| 2026-05-05 16:53 | 38.88524 | 56.71587 | 28607 ft | 490 kts | 114° |
| 2026-05-05 16:53 | 38.87390 | 56.75688 | 27920 ft | 483 kts | 114° |
| 2026-05-05 16:53 | 38.86283 | 56.79682 | 27228 ft | 477 kts | 114° |
| 2026-05-05 16:54 | 38.85175 | 56.83668 | 26538 ft | 471 kts | 114° |
| 2026-05-05 16:54 | 38.84077 | 56.87606 | 25873 ft | 466 kts | 114° |
| 2026-05-05 16:54 | 38.82990 | 56.91497 | 25213 ft | 461 kts | 113° |
| 2026-05-05 16:54 | 38.81906 | 56.95368 | 24563 ft | 457 kts | 113° |
| 2026-05-05 16:55 | 38.80833 | 56.99197 | 23890 ft | 453 kts | 113° |
| 2026-05-05 16:55 | 38.79783 | 57.02938 | 23208 ft | 450 kts | 113° |
| 2026-05-05 16:55 | 38.78727 | 57.06694 | 22455 ft | 446 kts | 113° |
| 2026-05-05 16:55 | 38.77681 | 57.10414 | 21759 ft | 440 kts | 113° |
| 2026-05-05 16:56 | 38.76646 | 57.14090 | 21109 ft | 435 kts | 113° |
| 2026-05-05 16:56 | 38.75630 | 57.17690 | 20472 ft | 430 kts | 113° |
| 2026-05-05 16:56 | 38.74616 | 57.21279 | 19836 ft | 425 kts | 113° |
| 2026-05-05 16:56 | 38.73612 | 57.24830 | 19205 ft | 421 kts | 113° |
| 2026-05-05 16:57 | 38.72619 | 57.28335 | 18583 ft | 417 kts | 113° |
| 2026-05-05 16:57 | 38.71636 | 57.31800 | 17941 ft | 413 kts | 113° |
| 2026-05-05 16:57 | 38.70658 | 57.35244 | 17244 ft | 409 kts | 113° |
| 2026-05-05 16:57 | 38.69688 | 57.38655 | 16598 ft | 404 kts | 113° |
| 2026-05-05 16:58 | 38.68744 | 57.41972 | 15991 ft | 399 kts | 113° |
| 2026-05-05 16:58 | 38.67798 | 57.45292 | 15390 ft | 394 kts | 113° |
| 2026-05-05 16:58 | 38.66863 | 57.48567 | 14791 ft | 389 kts | 114° |
| 2026-05-05 16:58 | 38.65938 | 57.51804 | 14205 ft | 385 kts | 114° |
| 2026-05-05 16:59 | 38.65021 | 57.55009 | 13632 ft | 382 kts | 114° |
| 2026-05-05 16:59 | 38.64110 | 57.58190 | 12989 ft | 378 kts | 114° |
| 2026-05-05 16:59 | 38.63217 | 57.61303 | 12392 ft | 374 kts | 113° |
| 2026-05-05 16:59 | 38.62317 | 57.64403 | 11814 ft | 368 kts | 115° |
| 2026-05-05 17:00 | 38.60999 | 57.67151 | 11299 ft | 357 kts | 135° |
| 2026-05-05 17:00 | 38.59202 | 57.69279 | 10871 ft | 349 kts | 142° |
| 2026-05-05 17:00 | 38.57338 | 57.71226 | 10513 ft | 340 kts | 144° |
| 2026-05-05 17:00 | 38.55542 | 57.73047 | 10369 ft | 326 kts | 144° |
| 2026-05-05 17:01 | 38.53792 | 57.74819 | 10224 ft | 314 kts | 144° |
| 2026-05-05 17:01 | 38.52114 | 57.76530 | 10160 ft | 300 kts | 144° |
| 2026-05-05 17:01 | 38.50521 | 57.78163 | 10127 ft | 286 kts | 144° |
| 2026-05-05 17:01 | 38.49019 | 57.79712 | 10026 ft | 277 kts | 143° |
| 2026-05-05 17:02 | 38.47541 | 57.81238 | 9834 ft | 271 kts | 143° |
| 2026-05-05 17:02 | 38.46077 | 57.82750 | 9555 ft | 270 kts | 143° |
| 2026-05-05 17:02 | 38.44624 | 57.84253 | 9241 ft | 269 kts | 143° |
| 2026-05-05 17:02 | 38.43170 | 57.85760 | 8927 ft | 268 kts | 143° |
| 2026-05-05 17:03 | 38.41720 | 57.87261 | 8625 ft | 267 kts | 143° |
| 2026-05-05 17:03 | 38.40278 | 57.88754 | 8324 ft | 266 kts | 142° |
| 2026-05-05 17:03 | 38.38846 | 57.90238 | 8025 ft | 265 kts | 142° |
| 2026-05-05 17:03 | 38.37416 | 57.91719 | 7732 ft | 264 kts | 142° |
| 2026-05-05 17:04 | 38.36008 | 57.93177 | 7433 ft | 263 kts | 142° |
| 2026-05-05 17:04 | 38.34591 | 57.94643 | 7132 ft | 262 kts | 142° |
| 2026-05-05 17:04 | 38.33180 | 57.96102 | 6843 ft | 261 kts | 142° |
| 2026-05-05 17:04 | 38.31767 | 57.97564 | 6543 ft | 260 kts | 142° |
| 2026-05-05 17:05 | 38.30362 | 57.99016 | 6251 ft | 259 kts | 141° |
| 2026-05-05 17:05 | 38.28980 | 58.00443 | 5952 ft | 258 kts | 141° |
| 2026-05-05 17:05 | 38.27585 | 58.01884 | 5636 ft | 257 kts | 141° |
| 2026-05-05 17:05 | 38.26198 | 58.03315 | 5341 ft | 256 kts | 141° |
| 2026-05-05 17:06 | 38.24815 | 58.04742 | 5040 ft | 255 kts | 141° |
| 2026-05-05 17:06 | 38.23439 | 58.06161 | 4744 ft | 254 kts | 141° |
| 2026-05-05 17:06 | 38.22078 | 58.07564 | 4593 ft | 247 kts | 141° |
| 2026-05-05 17:06 | 38.20758 | 58.08924 | 4451 ft | 240 kts | 141° |
| 2026-05-05 17:07 | 38.19495 | 58.10224 | 4350 ft | 232 kts | 141° |
| 2026-05-05 17:07 | 38.18265 | 58.11490 | 4250 ft | 224 kts | 141° |
| 2026-05-05 17:07 | 38.17074 | 58.12716 | 4156 ft | 216 kts | 141° |
| 2026-05-05 17:07 | 38.15923 | 58.13899 | 4063 ft | 209 kts | 140° |
| 2026-05-05 17:08 | 38.14818 | 58.15033 | 3993 ft | 198 kts | 140° |
| 2026-05-05 17:08 | 38.13761 | 58.16118 | 3771 ft | 192 kts | 140° |
| 2026-05-05 17:08 | 38.12735 | 58.17132 | 3590 ft | 187 kts | 149° |
| 2026-05-05 17:08 | 38.11504 | 58.17542 | 3435 ft | 181 kts | 170° |
| 2026-05-05 17:09 | 38.10268 | 58.17779 | 3239 ft | 176 kts | 168° |
| 2026-05-05 17:09 | 38.09073 | 58.18024 | 3045 ft | 171 kts | 168° |
| 2026-05-05 17:09 | 38.07913 | 58.18262 | 2860 ft | 167 kts | 168° |
| 2026-05-05 17:09 | 38.06798 | 58.18488 | 2688 ft | 161 kts | 168° |
| 2026-05-05 17:10 | 38.05725 | 58.18821 | 2565 ft | 159 kts | 147° |
| 2026-05-05 17:10 | 38.05127 | 58.19924 | 2543 ft | 151 kts | 110° |
| 2026-05-05 17:10 | 38.04580 | 58.21061 | 2539 ft | 150 kts | 134° |
| 2026-05-05 17:10 | 38.04001 | 58.22128 | 2517 ft | 146 kts | 107° |
| 2026-05-05 17:11 | 38.03676 | 58.23302 | 2438 ft | 140 kts | 123° |
| 2026-05-05 17:11 | 38.03157 | 58.24317 | 2508 ft | 136 kts | 121° |
| 2026-05-05 17:11 | 38.02660 | 58.25396 | 2445 ft | 147 kts | 119° |
| 2026-05-05 17:11 | 38.02146 | 58.26524 | 2069 ft | 150 kts | 120° |
| 2026-05-05 17:12 | 38.01615 | 58.27672 | 1787 ft | 149 kts | 118° |
| 2026-05-05 17:12 | 38.01127 | 58.28776 | 1566 ft | 137 kts | 120° |
| 2026-05-05 17:12 | 38.00672 | 58.29799 | 1387 ft | 130 kts | 120° |
| 2026-05-05 17:12 | 38.00208 | 58.30845 | 1197 ft | 138 kts | 121° |
| 2026-05-05 17:13 | 37.99730 | 58.31897 | 1015 ft | 139 kts | 119° |
| 2026-05-05 17:13 | 37.99283 | 58.32973 | 855 ft | 139 kts | 123° |
| 2026-05-05 17:13 | 37.98785 | 58.34063 | 681 ft | 142 kts | 121° |
| 2026-05-05 17:13 | 37.98351 | 58.35030 | 678 ft | 105 kts | 119° |
| 2026-05-05 17:14 | 37.98068 | 58.35667 | 676 ft | 61 kts | 120° |
| 2026-05-05 17:14 | 37.97925 | 58.36018 | 679 ft | 30 kts | 97° |
| 2026-05-05 17:14 | 37.97912 | 58.36249 | 678 ft | 14 kts | 90° |
| 2026-05-05 17:14 | 37.97911 | 58.36367 | 677 ft | 13 kts | 91° |
| 2026-05-05 17:15 | 37.97913 | 58.36481 | 677 ft | 13 kts | 85° |
| 2026-05-05 17:15 | 37.97965 | 58.36565 | 677 ft | 12 kts | 30° |
| 2026-05-05 17:15 | 37.98038 | 58.36622 | 677 ft | 12 kts | 29° |
| 2026-05-05 17:15 | 37.98108 | 58.36671 | 677 ft | 7 kts | 28° |
| 2026-05-05 17:16 | 37.98151 | 58.36701 | 677 ft | 7 kts | 34° |
| 2026-05-05 17:16 | 37.98151 | 58.36758 | 677 ft | 7 kts | 120° |
| 2026-05-05 17:16 | 37.98123 | 58.36782 | 677 ft | 5 kts | 190° |
| 2026-05-05 17:16 | 37.98090 | 58.36764 | 677 ft | 6 kts | 210° |
| 2026-05-05 17:17 | 37.98081 | 58.36757 | 677 ft | 0 kts | 211° |